Floyd, Texas
Current Conditions -  °F | °C
As of 11:15 PM on Friday 28 Nov 2014 (Local Time) from KGVT Reporting Station
Clear Clear  
Wind Chill: 61°   Ceiling: Unl
Heat Index: 61°   Visibility: 10mi
Dew Point: 48°   Wind: 13mph
Humidity: 63%   Direction: 190°S
Pressure: 30"   Gusts: 21mph
Location:  33.1242°N, 96.0996°W
Report Text: KGVT 290515Z AUTO 19011G18KT 10SM CLR 16/09 A3000 RMK AO2
Loading
Personal Weather Stations






























Interactive Weather Map New forecast layout! Learn more

10-Day Weather Forecast

Advertisements
Track Severe Weather on mobile